Time;durP1;ratioP1;P1;durP2;ratioP2;P2;SDS_P1;SDS_P2;PMS_P1;PMS_P2;Temp;Humidity;BMP_temperature;BMP_pressure;BME280_temperature;BME280_humidity;BME280_pressure;Samples;Min_cycle;Max_cycle;Signal;HPM_P1;HPM_P2
2022/11/25 00:00:23;;;;;;;3.17;2.10;;;;;;;;;;2079506;28;20486;-68
2022/11/25 00:01:42;;;;;;;3.78;2.30;;;;;;;;;;2081793;28;20042;-67
2022/11/25 00:03:02;;;;;;;2.20;2.10;;;;;;;;;;2083771;28;20401;-68
2022/11/25 00:04:21;;;;;;;3.58;2.00;;;;;;;;;;2083021;28;20025;-68
2022/11/25 00:05:40;;;;;;;2.67;2.47;;;;;;;;;;2080301;28;20025;-68
2022/11/25 00:06:59;;;;;;;2.58;2.17;;;;;;;;;;2084335;28;20071;-68
2022/11/25 00:08:17;;;;;;;2.50;2.28;;;;;;;;;;2082250;28;20029;-68
2022/11/25 00:09:36;;;;;;;2.70;2.50;;;;;;;;;;2083198;28;20044;-68
2022/11/25 00:10:59;;;;;;;2.92;2.50;;;;;;;;;;2081264;28;20108;-68
2022/11/25 00:12:18;;;;;;;3.38;2.38;;;;;;;;;;2082011;28;20132;-68
2022/11/25 00:13:38;;;;;;;4.70;2.67;;;;;;;;;;2081951;28;20030;-68
2022/11/25 00:14:57;;;;;;;3.58;2.05;;;;;;;;;;2083971;28;20021;-68
2022/11/25 00:16:17;;;;;;;4.30;1.80;;;;;;;;;;2081989;28;20033;-68
2022/11/25 00:17:36;;;;;;;2.78;2.15;;;;;;;;;;2081296;28;20034;-68
2022/11/25 00:18:55;;;;;;;2.00;1.90;;;;;;;;;;2081850;28;20049;-68
2022/11/25 00:20:14;;;;;;;2.38;2.20;;;;;;;;;;2080760;28;20033;-68
2022/11/25 00:21:33;;;;;;;2.00;1.90;;;;;;;;;;2080740;28;20301;-68
2022/11/25 00:22:52;;;;;;;3.42;1.92;;;;;;;;;;2083937;28;20033;-68
2022/11/25 00:24:13;;;;;;;2.72;2.53;;;;;;;;;;2084161;28;20025;-68
2022/11/25 00:25:31;;;;;;;3.67;1.95;;;;;;;;;;2082619;28;20045;-67
2022/11/25 00:26:50;;;;;;;2.30;2.20;;;;;;;;;;2082316;28;20041;-68
2022/11/25 00:28:09;;;;;;;2.70;2.30;;;;;;;;;;2078072;28;20028;-67
2022/11/25 00:29:28;;;;;;;1.98;1.88;;;;;;;;;;2081849;28;20037;-68
2022/11/25 00:30:47;;;;;;;3.13;2.53;;;;;;;;;;2081507;28;20445;-68
2022/11/25 00:32:06;;;;;;;2.65;2.45;;;;;;;;;;2079995;28;20033;-68
2022/11/25 00:33:25;;;;;;;2.53;2.33;;;;;;;;;;2080110;28;20037;-67
2022/11/25 00:34:44;;;;;;;2.53;2.25;;;;;;;;;;2083980;28;20022;-66
2022/11/25 00:36:04;;;;;;;2.78;2.58;;;;;;;;;;2082857;28;20022;-68
2022/11/25 00:37:22;;;;;;;2.35;2.25;;;;;;;;;;2081619;28;20037;-67
2022/11/25 00:38:42;;;;;;;2.20;2.00;;;;;;;;;;2084118;28;20100;-68
2022/11/25 00:40:00;;;;;;;2.15;1.80;;;;;;;;;;2080756;28;20389;-68
2022/11/25 00:44:35;;;;;;;4.88;2.55;;;;;;;;;;2082822;28;20037;-68
2022/11/25 00:45:54;;;;;;;2.67;2.42;;;;;;;;;;2081389;28;20025;-67
2022/11/25 00:47:14;;;;;;;2.85;2.17;;;;;;;;;;2081876;28;20045;-67
2022/11/25 00:48:33;;;;;;;3.53;2.03;;;;;;;;;;2085131;28;20112;-68
2022/11/25 00:49:53;;;;;;;4.07;2.15;;;;;;;;;;2081731;28;20602;-68
2022/11/25 00:51:12;;;;;;;2.45;2.30;;;;;;;;;;2083437;28;20046;-68
2022/11/25 00:52:35;;;;;;;2.67;2.10;;;;;;;;;;2084317;28;20120;-68
2022/11/25 00:53:54;;;;;;;3.63;1.88;;;;;;;;;;2084430;28;20100;-68
2022/11/25 00:55:13;;;;;;;2.38;2.17;;;;;;;;;;2084412;28;20516;-68
2022/11/25 00:56:32;;;;;;;2.75;2.13;;;;;;;;;;2082032;28;20041;-68
2022/11/25 00:57:51;;;;;;;2.60;2.40;;;;;;;;;;2082194;28;20025;-68
2022/11/25 00:59:10;;;;;;;3.83;2.33;;;;;;;;;;2085540;28;20025;-68
2022/11/25 01:00:29;;;;;;;2.88;2.20;;;;;;;;;;2082034;28;20107;-68
2022/11/25 01:01:48;;;;;;;2.50;2.30;;;;;;;;;;2081224;28;20072;-68
2022/11/25 01:03:07;;;;;;;3.20;2.63;;;;;;;;;;2083553;28;20033;-68
2022/11/25 01:04:26;;;;;;;3.60;2.10;;;;;;;;;;2083027;28;20394;-68
2022/11/25 01:05:45;;;;;;;2.67;2.47;;;;;;;;;;2078940;28;20041;-70
2022/11/25 01:07:04;;;;;;;2.13;2.03;;;;;;;;;;2083749;28;20502;-68
2022/11/25 01:08:23;;;;;;;2.17;1.98;;;;;;;;;;2083339;28;20037;-70
2022/11/25 01:09:42;;;;;;;2.78;2.58;;;;;;;;;;2080241;28;20086;-68
2022/11/25 01:11:02;;;;;;;2.33;2.10;;;;;;;;;;2084537;28;20033;-68
2022/11/25 01:12:21;;;;;;;2.97;1.80;;;;;;;;;;2081804;28;20025;-68
2022/11/25 01:13:40;;;;;;;2.70;2.40;;;;;;;;;;2079066;28;20026;-68
2022/11/25 01:14:59;;;;;;;4.57;2.20;;;;;;;;;;2081578;28;20028;-68
2022/11/25 01:16:19;;;;;;;2.25;1.92;;;;;;;;;;2083055;28;20032;-68
2022/11/25 01:17:37;;;;;;;2.10;2.00;;;;;;;;;;2079321;28;20025;-68
2022/11/25 01:18:57;;;;;;;2.40;2.20;;;;;;;;;;2084174;28;20037;-68
2022/11/25 01:20:16;;;;;;;2.90;2.30;;;;;;;;;;2081735;28;20025;-69
2022/11/25 01:21:35;;;;;;;2.10;2.00;;;;;;;;;;2079811;28;20442;-68
2022/11/25 01:22:54;;;;;;;2.10;2.00;;;;;;;;;;2081753;28;20045;-68
2022/11/25 01:24:14;;;;;;;2.20;2.03;;;;;;;;;;2080601;28;20026;-68
2022/11/25 01:25:36;;;;;;;1.90;1.80;;;;;;;;;;2079931;28;20499;-68
2022/11/25 01:26:55;;;;;;;2.10;1.90;;;;;;;;;;2083997;28;20029;-68
2022/11/25 01:28:14;;;;;;;2.10;2.00;;;;;;;;;;2080809;28;20029;-69
2022/11/25 01:29:33;;;;;;;3.13;1.77;;;;;;;;;;2080592;28;20055;-69
2022/11/25 01:31:03;;;;;;;2.20;1.88;;;;;;;;;;2081088;28;20033;-69
2022/11/25 01:32:22;;;;;;;2.25;2.00;;;;;;;;;;2080924;28;20033;-69
2022/11/25 01:33:41;;;;;;;3.00;1.75;;;;;;;;;;2079958;28;20021;-69
2022/11/25 01:35:00;;;;;;;2.80;2.00;;;;;;;;;;2080347;28;20025;-69
2022/11/25 01:36:19;;;;;;;2.80;1.70;;;;;;;;;;2083193;28;20033;-69
2022/11/25 01:37:37;;;;;;;2.10;2.00;;;;;;;;;;2079023;28;20049;-69
2022/11/25 01:38:58;;;;;;;2.10;2.00;;;;;;;;;;2083002;28;20109;-68
2022/11/25 01:40:17;;;;;;;1.92;1.83;;;;;;;;;;2080538;28;20116;-69
2022/11/25 01:41:48;;;;;;;2.20;2.00;;;;;;;;;;2082035;28;20063;-69
2022/11/25 01:43:14;;;;;;;1.95;1.85;;;;;;;;;;2084263;23;20457;-83
2022/11/25 01:44:34;;;;;;;1.73;1.63;;;;;;;;;;2071591;28;20026;-83
2022/11/25 01:46:01;;;;;;;1.73;1.63;;;;;;;;;;2065225;28;20050;-83
2022/11/25 01:47:24;;;;;;;2.00;1.90;;;;;;;;;;2065584;28;20026;-82
2022/11/25 01:48:54;;;;;;;1.95;1.75;;;;;;;;;;2064807;28;20042;-83
2022/11/25 01:50:15;;;;;;;2.38;1.80;;;;;;;;;;2063027;28;20038;-83
2022/11/25 01:51:57;;;;;;;2.13;1.92;;;;;;;;;;2059978;28;20026;-84
2022/11/25 01:53:17;;;;;;;2.28;2.17;;;;;;;;;;2051159;28;20031;-82
2022/11/25 01:54:42;;;;;;;2.25;2.05;;;;;;;;;;2065097;28;20403;-82
2022/11/25 01:56:02;;;;;;;2.15;1.95;;;;;;;;;;2066835;28;20039;-84
2022/11/25 01:57:25;;;;;;;2.58;2.10;;;;;;;;;;2065616;28;20101;-83
2022/11/25 01:58:45;;;;;;;1.88;1.67;;;;;;;;;;2073527;28;20035;-83
2022/11/25 02:00:05;;;;;;;1.70;1.60;;;;;;;;;;2066637;28;20023;-82
2022/11/25 02:01:24;;;;;;;1.70;1.60;;;;;;;;;;2065847;28;20018;-83
2022/11/25 02:02:45;;;;;;;2.58;2.20;;;;;;;;;;2060475;28;20030;-83
2022/11/25 02:04:04;;;;;;;2.97;1.90;;;;;;;;;;2062860;28;20034;-82
2022/11/25 02:05:39;;;;;;;1.90;1.80;;;;;;;;;;2064618;28;20112;-84
2022/11/25 02:07:01;;;;;;;1.80;1.70;;;;;;;;;;2065220;28;20027;-83
2022/11/25 02:08:25;;;;;;;3.80;1.75;;;;;;;;;;2063381;28;20511;-83
2022/11/25 02:09:46;;;;;;;2.00;1.90;;;;;;;;;;2057952;28;20407;-83
2022/11/25 02:11:05;;;;;;;1.77;1.67;;;;;;;;;;2058391;28;20058;-83
2022/11/25 02:12:25;;;;;;;1.27;1.15;;;;;;;;;;2065130;28;20038;-83
2022/11/25 02:13:45;;;;;;;3.20;1.67;;;;;;;;;;2064150;28;20042;-83
2022/11/25 02:15:05;;;;;;;1.90;1.80;;;;;;;;;;2062317;28;20058;-80
2022/11/25 02:16:24;;;;;;;1.30;1.20;;;;;;;;;;2065004;28;20039;-83
2022/11/25 02:17:43;;;;;;;2.22;1.50;;;;;;;;;;2060119;28;20395;-82
2022/11/25 02:19:02;;;;;;;1.77;1.63;;;;;;;;;;2061567;28;20288;-83
2022/11/25 02:20:22;;;;;;;3.50;1.80;;;;;;;;;;2064841;28;20034;-83
2022/11/25 02:21:45;;;;;;;1.90;1.80;;;;;;;;;;2064698;28;20034;-82
2022/11/25 02:23:18;;;;;;;1.63;1.52;;;;;;;;;;2065271;28;20503;-83
2022/11/25 02:24:42;;;;;;;1.15;1.15;;;;;;;;;;2065395;28;20435;-82
2022/11/25 02:26:01;;;;;;;1.70;1.60;;;;;;;;;;2063295;28;20089;-83
2022/11/25 02:27:21;;;;;;;1.73;1.63;;;;;;;;;;2071833;28;20051;-82
2022/11/25 02:28:40;;;;;;;1.85;1.45;;;;;;;;;;2063970;28;20517;-81
2022/11/25 02:29:59;;;;;;;1.77;1.67;;;;;;;;;;2064148;28;20022;-83
2022/11/25 02:31:19;;;;;;;1.60;1.50;;;;;;;;;;2063554;28;20050;-82
2022/11/25 02:32:42;;;;;;;2.35;1.45;;;;;;;;;;2063499;28;20368;-82
2022/11/25 02:34:01;;;;;;;;;;;;;;;;;;2063443;28;20031;-81
2022/11/25 02:35:26;;;;;;;1.50;1.40;;;;;;;;;;2060938;28;21821;-82
2022/11/25 02:36:45;;;;;;;1.40;1.30;;;;;;;;;;2063094;28;21011;-81
2022/11/25 02:38:05;;;;;;;1.80;1.38;;;;;;;;;;2063289;28;20471;-80
2022/11/25 02:39:24;;;;;;;1.85;1.52;;;;;;;;;;2063050;28;20043;-82
2022/11/25 02:40:47;;;;;;;2.67;2.08;;;;;;;;;;2064101;28;20030;-82
2022/11/25 02:42:07;;;;;;;1.83;1.73;;;;;;;;;;2063063;28;20035;-82
2022/11/25 02:43:26;;;;;;;1.67;1.58;;;;;;;;;;2067477;28;20042;-81
2022/11/25 02:44:46;;;;;;;1.77;1.50;;;;;;;;;;2064005;28;20038;-83
2022/11/25 02:46:09;;;;;;;1.63;1.52;;;;;;;;;;2063963;28;20387;-82
2022/11/25 02:47:28;;;;;;;;;;;;;;;;;;2062784;28;20109;-81
2022/11/25 02:48:47;;;;;;;1.38;1.27;;;;;;;;;;2063293;28;19914;-82
2022/11/25 02:50:06;;;;;;;1.38;1.27;;;;;;;;;;2063514;28;20038;-83
2022/11/25 02:51:27;;;;;;;2.20;1.27;;;;;;;;;;2059916;28;20046;-83
2022/11/25 02:52:47;;;;;;;1.30;1.20;;;;;;;;;;2065266;28;20031;-82
2022/11/25 02:54:06;;;;;;;1.95;1.35;;;;;;;;;;2063457;28;20488;-82
2022/11/25 02:55:24;;;;;;;2.00;1.10;;;;;;;;;;2063378;28;20030;-82
2022/11/25 02:56:43;;;;;;;2.10;1.20;;;;;;;;;;2070399;28;20708;-81
2022/11/25 02:58:02;;;;;;;1.35;1.25;;;;;;;;;;2064521;28;20030;-83
2022/11/25 02:59:21;;;;;;;0.90;0.90;;;;;;;;;;2059500;28;20039;-83
2022/11/25 03:00:41;;;;;;;1.38;1.27;;;;;;;;;;2058855;28;20069;-79
2022/11/25 03:01:59;;;;;;;1.40;1.30;;;;;;;;;;2060550;28;20042;-83
2022/11/25 03:03:18;;;;;;;1.50;1.40;;;;;;;;;;2064071;28;20029;-82
2022/11/25 03:04:37;;;;;;;1.40;1.30;;;;;;;;;;2063657;28;20039;-83
2022/11/25 03:05:56;;;;;;;1.58;1.45;;;;;;;;;;2065319;28;20109;-81
2022/11/25 03:07:15;;;;;;;2.53;1.50;;;;;;;;;;2061551;28;20030;-82
2022/11/25 03:08:35;;;;;;;1.30;1.20;;;;;;;;;;2064523;28;20038;-83
2022/11/25 03:09:53;;;;;;;1.50;1.10;;;;;;;;;;2059009;28;20041;-83
2022/11/25 03:11:12;;;;;;;2.67;1.15;;;;;;;;;;2061479;28;20514;-82
2022/11/25 03:12:31;;;;;;;1.40;1.30;;;;;;;;;;2064321;28;20070;-82
2022/11/25 03:13:51;;;;;;;1.50;1.27;;;;;;;;;;2061204;28;20023;-81
2022/11/25 03:15:10;;;;;;;1.40;1.30;;;;;;;;;;2062383;28;20031;-81
2022/11/25 03:16:30;;;;;;;1.60;1.50;;;;;;;;;;2066069;28;20520;-82
2022/11/25 03:17:49;;;;;;;1.63;1.52;;;;;;;;;;2059430;28;20038;-83
2022/11/25 03:19:08;;;;;;;3.00;1.48;;;;;;;;;;2060785;28;20027;-81
2022/11/25 03:20:27;;;;;;;1.75;1.63;;;;;;;;;;2060723;28;20470;-82
2022/11/25 03:21:45;;;;;;;1.40;1.30;;;;;;;;;;2060438;28;20035;-82
2022/11/25 03:23:04;;;;;;;1.58;1.38;;;;;;;;;;2059621;28;20074;-81
2022/11/25 03:24:23;;;;;;;1.50;1.40;;;;;;;;;;2060153;28;20030;-83
2022/11/25 03:25:42;;;;;;;1.40;1.30;;;;;;;;;;2064244;28;20027;-85
2022/11/25 03:27:00;;;;;;;1.48;1.38;;;;;;;;;;2065140;28;20102;-83
2022/11/25 03:28:19;;;;;;;2.47;1.50;;;;;;;;;;2066501;28;20031;-83
2022/11/25 03:29:38;;;;;;;1.77;1.50;;;;;;;;;;2065371;28;20046;-81
2022/11/25 03:30:58;;;;;;;1.60;1.25;;;;;;;;;;2061570;28;20026;-81
2022/11/25 03:32:17;;;;;;;1.20;1.10;;;;;;;;;;2066844;28;20033;-83
2022/11/25 03:33:35;;;;;;;1.40;1.30;;;;;;;;;;2063700;28;20042;-83
2022/11/25 03:34:54;;;;;;;1.27;1.17;;;;;;;;;;2068646;28;20034;-83
2022/11/25 03:36:13;;;;;;;1.17;1.08;;;;;;;;;;2065284;28;20061;-82
2022/11/25 03:37:32;;;;;;;1.15;1.10;;;;;;;;;;2067141;28;20082;-83
2022/11/25 03:38:51;;;;;;;1.15;1.08;;;;;;;;;;2066897;28;20527;-83
2022/11/25 03:40:11;;;;;;;1.38;1.27;;;;;;;;;;2073465;28;20038;-83
2022/11/25 03:41:30;;;;;;;1.60;1.50;;;;;;;;;;2068586;28;20113;-84
2022/11/25 03:42:49;;;;;;;1.05;1.05;;;;;;;;;;2066419;28;20714;-82
2022/11/25 03:44:08;;;;;;;3.05;1.88;;;;;;;;;;2061667;28;20387;-82
2022/11/25 03:45:27;;;;;;;1.38;1.27;;;;;;;;;;2060946;28;20105;-82
2022/11/25 03:46:45;;;;;;;1.70;1.60;;;;;;;;;;2062928;28;20423;-82
2022/11/25 03:48:04;;;;;;;1.98;1.42;;;;;;;;;;2066044;28;20066;-82
2022/11/25 03:49:23;;;;;;;2.42;1.70;;;;;;;;;;2066996;28;20034;-82
2022/11/25 03:50:42;;;;;;;2.65;1.42;;;;;;;;;;2058468;28;20523;-82
2022/11/25 03:52:01;;;;;;;2.25;1.75;;;;;;;;;;2061211;28;20038;-83
2022/11/25 03:53:20;;;;;;;1.83;1.55;;;;;;;;;;2066158;28;20022;-83
2022/11/25 03:54:39;;;;;;;1.48;1.38;;;;;;;;;;2061623;28;20857;-83
2022/11/25 03:55:58;;;;;;;1.50;1.40;;;;;;;;;;2064717;28;21286;-82
2022/11/25 03:57:17;;;;;;;2.33;1.70;;;;;;;;;;2066151;28;20062;-80
2022/11/25 03:58:36;;;;;;;1.52;1.42;;;;;;;;;;2065663;28;20018;-80
2022/11/25 03:59:55;;;;;;;1.90;1.80;;;;;;;;;;2063818;28;20109;-80
2022/11/25 04:01:13;;;;;;;1.73;1.60;;;;;;;;;;2066496;28;20026;-80
2022/11/25 04:02:32;;;;;;;4.90;1.70;;;;;;;;;;2066212;28;20426;-81
2022/11/25 04:03:53;;;;;;;1.58;1.48;;;;;;;;;;2062476;28;20038;-80
2022/11/25 04:05:12;;;;;;;1.80;1.58;;;;;;;;;;2066987;28;20034;-82
2022/11/25 04:06:31;;;;;;;2.33;1.23;;;;;;;;;;2062262;28;20030;-82
2022/11/25 04:07:50;;;;;;;1.42;1.30;;;;;;;;;;2062185;28;20039;-82
2022/11/25 04:09:10;;;;;;;1.55;1.45;;;;;;;;;;2062216;28;20023;-79
2022/11/25 04:10:29;;;;;;;1.70;1.60;;;;;;;;;;2062177;28;20030;-82
2022/11/25 04:13:26;;;;;;;2.10;1.30;;;;;;;;;;2065541;28;20491;-82
2022/11/25 04:14:45;;;;;;;1.70;1.60;;;;;;;;;;2065506;28;20470;-82
2022/11/25 04:16:04;;;;;;;2.42;1.50;;;;;;;;;;2065487;28;20045;-81
2022/11/25 04:17:23;;;;;;;1.00;1.00;;;;;;;;;;2061837;28;20031;-80
2022/11/25 04:18:42;;;;;;;1.48;1.38;;;;;;;;;;2066396;28;20364;-81
2022/11/25 04:20:02;;;;;;;1.70;1.13;;;;;;;;;;2063337;28;20061;-81
2022/11/25 04:21:22;;;;;;;1.45;1.35;;;;;;;;;;2066579;28;20491;-81
2022/11/25 04:22:41;;;;;;;1.35;1.25;;;;;;;;;;2064464;28;20483;-81
2022/11/25 04:24:00;;;;;;;1.85;1.10;;;;;;;;;;2062090;28;20026;-81
2022/11/25 04:25:19;;;;;;;1.50;1.40;;;;;;;;;;2063425;28;20110;-81
2022/11/25 04:26:38;;;;;;;2.38;1.40;;;;;;;;;;2063001;28;20027;-81
2022/11/25 04:27:57;;;;;;;2.90;1.65;;;;;;;;;;2062088;28;20026;-81
2022/11/25 04:29:16;;;;;;;1.73;1.35;;;;;;;;;;2061429;28;20023;-81
2022/11/25 04:30:35;;;;;;;1.20;1.10;;;;;;;;;;2060803;28;20053;-80
2022/11/25 04:31:54;;;;;;;3.30;1.88;;;;;;;;;;2062980;28;20026;-81
2022/11/25 04:33:13;;;;;;;3.00;1.42;;;;;;;;;;2065474;28;20026;-81
2022/11/25 04:34:32;;;;;;;3.17;1.73;;;;;;;;;;2065936;28;20030;-81
2022/11/25 04:35:51;;;;;;;2.13;1.80;;;;;;;;;;2065787;28;20038;-81
2022/11/25 04:37:10;;;;;;;1.70;1.60;;;;;;;;;;2062164;28;20508;-82
2022/11/25 04:38:29;;;;;;;2.17;1.98;;;;;;;;;;2060824;28;20415;-81
2022/11/25 04:39:48;;;;;;;3.67;1.65;;;;;;;;;;2062600;28;20030;-81
2022/11/25 04:41:07;;;;;;;2.00;1.90;;;;;;;;;;2061512;28;20503;-81
2022/11/25 04:42:31;;;;;;;4.18;1.83;;;;;;;;;;2062223;28;20031;-81
2022/11/25 04:43:51;;;;;;;1.90;1.80;;;;;;;;;;2062699;28;20038;-81
2022/11/25 04:45:14;;;;;;;4.18;1.95;;;;;;;;;;2061712;28;21442;-81
2022/11/25 04:46:36;;;;;;;1.65;1.55;;;;;;;;;;2066502;28;20034;-81
2022/11/25 04:47:55;;;;;;;2.58;2.38;;;;;;;;;;2067333;28;20030;-81
2022/11/25 04:49:14;;;;;;;4.32;1.60;;;;;;;;;;2064679;28;20026;-81
2022/11/25 04:50:32;;;;;;;2.70;2.10;;;;;;;;;;2062598;28;20026;-81
2022/11/25 04:51:51;;;;;;;1.88;1.75;;;;;;;;;;2061469;28;20045;-81
2022/11/25 04:53:10;;;;;;;3.33;1.80;;;;;;;;;;2062539;28;20087;-81
2022/11/25 04:54:29;;;;;;;1.90;1.80;;;;;;;;;;2062089;28;20030;-81
2022/11/25 04:55:48;;;;;;;1.80;1.70;;;;;;;;;;2061275;28;20704;-81
2022/11/25 04:57:11;;;;;;;1.65;1.55;;;;;;;;;;2065562;28;20027;-81
2022/11/25 05:00:08;;;;;;;1.85;1.75;;;;;;;;;;2064759;28;20027;-81
2022/11/25 05:01:27;;;;;;;5.68;3.22;;;;;;;;;;2064680;28;20030;-81
2022/11/25 05:02:46;;;;;;;3.28;1.90;;;;;;;;;;2061730;28;20027;-81
2022/11/25 05:04:05;;;;;;;1.92;1.60;;;;;;;;;;2062170;28;20026;-80
2022/11/25 05:05:24;;;;;;;4.03;2.50;;;;;;;;;;2062076;28;20030;-81
2022/11/25 05:06:43;;;;;;;10.40;6.78;;;;;;;;;;2061951;28;20031;-81
2022/11/25 05:08:02;;;;;;;1.70;1.60;;;;;;;;;;2063880;28;20022;-81
2022/11/25 05:09:21;;;;;;;2.42;1.70;;;;;;;;;;2065560;28;20046;-80
2022/11/25 05:10:40;;;;;;;1.70;1.60;;;;;;;;;;2060744;28;20034;-81
2022/11/25 05:11:59;;;;;;;1.75;1.42;;;;;;;;;;2061996;28;20034;-81
2022/11/25 05:13:18;;;;;;;1.65;1.50;;;;;;;;;;2061122;28;20026;-81
2022/11/25 05:14:37;;;;;;;1.58;1.48;;;;;;;;;;2060893;28;20026;-81
2022/11/25 05:15:57;;;;;;;1.77;1.67;;;;;;;;;;2060395;28;20101;-81
2022/11/25 05:17:22;;;;;;;2.10;1.70;;;;;;;;;;2062508;28;20031;-81
2022/11/25 05:18:42;;;;;;;2.22;1.55;;;;;;;;;;2061974;28;20066;-80
2022/11/25 05:20:03;;;;;;;1.70;1.60;;;;;;;;;;2062545;28;20058;-81
2022/11/25 05:21:22;;;;;;;2.92;1.90;;;;;;;;;;2060961;28;20034;-81
2022/11/25 05:22:41;;;;;;;1.65;1.55;;;;;;;;;;2065967;28;20135;-81
2022/11/25 05:24:00;;;;;;;1.80;1.70;;;;;;;;;;2064306;28;20050;-81
2022/11/25 05:25:19;;;;;;;3.75;1.60;;;;;;;;;;2060730;28;20423;-81
2022/11/25 05:26:38;;;;;;;1.70;1.60;;;;;;;;;;2062124;28;20030;-80
2022/11/25 05:27:57;;;;;;;1.50;1.40;;;;;;;;;;2064703;28;20022;-80
2022/11/25 05:29:16;;;;;;;1.50;1.40;;;;;;;;;;2065682;28;20030;-82
2022/11/25 05:30:35;;;;;;;3.72;1.20;;;;;;;;;;2058418;28;20105;-80
2022/11/25 05:31:54;;;;;;;1.52;1.42;;;;;;;;;;2064549;28;20034;-82
2022/11/25 05:33:13;;;;;;;1.60;1.27;;;;;;;;;;2065437;28;20080;-81
2022/11/25 05:34:32;;;;;;;2.05;1.45;;;;;;;;;;2062484;28;20177;-81
2022/11/25 05:35:55;;;;;;;2.40;1.92;;;;;;;;;;2062410;28;20121;-81
2022/11/25 05:37:15;;;;;;;1.98;1.67;;;;;;;;;;2062346;28;20031;-81
2022/11/25 05:38:34;;;;;;;4.25;1.23;;;;;;;;;;2063961;28;20606;-80
2022/11/25 05:39:53;;;;;;;1.58;1.00;;;;;;;;;;2061826;28;20487;-81
2022/11/25 05:41:12;;;;;;;1.80;1.30;;;;;;;;;;2061582;28;20026;-81
2022/11/25 05:42:31;;;;;;;1.48;1.08;;;;;;;;;;2061264;28;20422;-80
2022/11/25 05:43:50;;;;;;;1.10;1.00;;;;;;;;;;2064203;28;20030;-81
2022/11/25 05:45:10;;;;;;;1.98;1.30;;;;;;;;;;2063469;28;20019;-81
2022/11/25 05:46:29;;;;;;;1.42;1.33;;;;;;;;;;2060997;28;20042;-81
2022/11/25 05:47:47;;;;;;;1.40;1.30;;;;;;;;;;2064892;28;20035;-79
2022/11/25 05:49:06;;;;;;;3.60;1.08;;;;;;;;;;2061664;28;20503;-79
2022/11/25 05:50:28;;;;;;;1.23;1.23;;;;;;;;;;2063905;28;20026;-79
2022/11/25 05:51:47;;;;;;;2.50;1.42;;;;;;;;;;2055536;28;20035;-79
2022/11/25 05:53:07;;;;;;;1.33;1.13;;;;;;;;;;2060823;28;20030;-80
2022/11/25 05:54:26;;;;;;;1.50;1.20;;;;;;;;;;2050094;28;20062;-81
2022/11/25 05:56:04;;;;;;;2.28;1.27;;;;;;;;;;2059658;28;20508;-80
2022/11/25 05:57:24;;;;;;;1.20;1.20;;;;;;;;;;2062878;28;20392;-82
2022/11/25 05:58:43;;;;;;;2.25;1.40;;;;;;;;;;2061142;28;20031;-79
2022/11/25 06:00:14;;;;;;;1.90;1.10;;;;;;;;;;2062371;28;20406;-83
2022/11/25 06:01:39;;;;;;;1.30;1.20;;;;;;;;;;2063697;28;20494;-81
2022/11/25 06:02:59;;;;;;;1.20;1.20;;;;;;;;;;2067427;28;20048;-82
2022/11/25 06:04:17;;;;;;;1.67;1.55;;;;;;;;;;2064570;28;20105;-79
2022/11/25 06:05:40;;;;;;;1.42;1.33;;;;;;;;;;2066040;28;20492;-80
2022/11/25 06:06:59;;;;;;;1.60;1.30;;;;;;;;;;2063172;28;20039;-81
2022/11/25 06:08:18;;;;;;;2.13;1.60;;;;;;;;;;2062085;28;20034;-81
2022/11/25 06:09:40;;;;;;;2.10;1.30;;;;;;;;;;2064062;28;20030;-82
2022/11/25 06:11:02;;;;;;;2.13;1.42;;;;;;;;;;2064744;28;20121;-81
2022/11/25 06:12:24;;;;;;;1.42;1.33;;;;;;;;;;2066333;28;20388;-81
2022/11/25 06:13:54;;;;;;;2.13;1.80;;;;;;;;;;2064383;28;20037;-82
2022/11/25 06:15:19;;;;;;;3.33;1.65;;;;;;;;;;2063065;28;20026;-84
2022/11/25 06:16:44;;;;;;;1.95;1.75;;;;;;;;;;2063417;28;20034;-82
2022/11/25 06:18:03;;;;;;;3.97;2.08;;;;;;;;;;2062973;28;20391;-80
2022/11/25 06:19:22;;;;;;;4.93;1.73;;;;;;;;;;2062424;28;20027;-79
2022/11/25 06:20:44;;;;;;;3.70;1.90;;;;;;;;;;2063796;28;20146;-80
2022/11/25 06:22:03;;;;;;;1.95;1.52;;;;;;;;;;2056600;28;20039;-79
2022/11/25 06:23:23;;;;;;;2.25;1.63;;;;;;;;;;2065653;28;20109;-79
2022/11/25 06:24:42;;;;;;;1.83;1.27;;;;;;;;;;2065000;28;20038;-82
2022/11/25 06:26:11;;;;;;;2.63;2.03;;;;;;;;;;2060128;28;20617;-80
2022/11/25 06:27:30;;;;;;;2.15;1.83;;;;;;;;;;2057509;28;20035;-81
2022/11/25 06:28:52;;;;;;;2.92;1.90;;;;;;;;;;2061142;28;20039;-82
2022/11/25 06:30:12;;;;;;;3.88;1.67;;;;;;;;;;2063581;28;20026;-82
2022/11/25 06:31:31;;;;;;;1.63;1.52;;;;;;;;;;2063227;28;20027;-82
2022/11/25 06:32:55;;;;;;;1.60;1.50;;;;;;;;;;2060458;28;20034;-81
2022/11/25 06:34:14;;;;;;;1.67;1.48;;;;;;;;;;2065971;28;20403;-81
2022/11/25 06:35:34;;;;;;;1.67;1.40;;;;;;;;;;2064729;28;20022;-80
2022/11/25 06:36:53;;;;;;;2.00;1.90;;;;;;;;;;2064806;28;20022;-81
2022/11/25 06:38:13;;;;;;;1.55;1.45;;;;;;;;;;2060960;28;20498;-82
2022/11/25 06:39:32;;;;;;;2.47;2.28;;;;;;;;;;2065902;28;20743;-80
2022/11/25 06:40:51;;;;;;;1.95;1.67;;;;;;;;;;2063108;28;20030;-80
2022/11/25 06:42:10;;;;;;;3.00;2.10;;;;;;;;;;2059527;28;20026;-79
2022/11/25 06:43:30;;;;;;;1.90;1.80;;;;;;;;;;2064869;28;20050;-80
2022/11/25 06:44:52;;;;;;;4.63;2.15;;;;;;;;;;2065608;28;20499;-80
2022/11/25 06:46:12;;;;;;;2.17;1.70;;;;;;;;;;2063531;28;20031;-83
2022/11/25 06:47:31;;;;;;;2.53;2.25;;;;;;;;;;2063638;28;20047;-80
2022/11/25 06:48:58;;;;;;;2.60;1.77;;;;;;;;;;2061210;28;20062;-79
2022/11/25 06:50:20;;;;;;;2.97;2.30;;;;;;;;;;2062834;28;20053;-81
2022/11/25 06:51:38;;;;;;;4.05;2.13;;;;;;;;;;2060840;28;20458;-80
2022/11/25 06:52:59;;;;;;;3.10;2.72;;;;;;;;;;2065673;28;20145;-81
2022/11/25 06:54:18;;;;;;;3.08;2.53;;;;;;;;;;2064741;28;20022;-80
2022/11/25 06:55:36;;;;;;;3.92;2.55;;;;;;;;;;2062549;28;20026;-81
2022/11/25 06:56:55;;;;;;;4.57;2.80;;;;;;;;;;2064239;28;20023;-80
2022/11/25 06:58:14;;;;;;;3.22;2.58;;;;;;;;;;2062709;28;20053;-80
2022/11/25 06:59:34;;;;;;;2.70;2.50;;;;;;;;;;2064780;28;20446;-79
2022/11/25 07:01:02;;;;;;;8.52;3.20;;;;;;;;;;2064841;28;20039;-84
2022/11/25 07:02:20;;;;;;;4.85;3.65;;;;;;;;;;2063646;28;20058;-79
2022/11/25 07:03:39;;;;;;;2.78;2.55;;;;;;;;;;2061787;28;20042;-79
2022/11/25 07:05:00;;;;;;;3.60;2.33;;;;;;;;;;2069118;28;20507;-79
2022/11/25 07:06:20;;;;;;;4.47;2.65;;;;;;;;;;2068587;28;20133;-79
2022/11/25 07:07:39;;;;;;;6.63;2.97;;;;;;;;;;2065122;28;20023;-80
2022/11/25 07:09:04;;;;;;;6.43;3.50;;;;;;;;;;2065033;28;20106;-79
2022/11/25 07:10:23;;;;;;;2.92;2.60;;;;;;;;;;2066566;28;20060;-79
2022/11/25 07:11:43;;;;;;;3.60;2.70;;;;;;;;;;2065469;28;20062;-79
2022/11/25 07:13:01;;;;;;;2.67;2.45;;;;;;;;;;2066014;28;20034;-80
2022/11/25 07:14:20;;;;;;;2.45;2.25;;;;;;;;;;2065783;28;20042;-79
2022/11/25 07:15:39;;;;;;;2.50;2.30;;;;;;;;;;2063692;28;20027;-79
2022/11/25 07:16:59;;;;;;;2.83;2.53;;;;;;;;;;2062514;28;20109;-79
2022/11/25 07:18:17;;;;;;;2.78;2.45;;;;;;;;;;2067065;28;20053;-79
2022/11/25 07:19:37;;;;;;;3.92;2.17;;;;;;;;;;2065489;28;20034;-79
2022/11/25 07:21:00;;;;;;;2.58;2.38;;;;;;;;;;2066000;28;20415;-79
2022/11/25 07:22:19;;;;;;;5.20;2.45;;;;;;;;;;2062659;28;20023;-80
2022/11/25 07:23:38;;;;;;;2.80;2.60;;;;;;;;;;2062456;28;20134;-80
2022/11/25 07:24:57;;;;;;;4.05;2.78;;;;;;;;;;2062153;28;20027;-80
2022/11/25 07:26:18;;;;;;;8.18;3.45;;;;;;;;;;2067387;28;20577;-80
2022/11/25 07:27:37;;;;;;;4.80;2.95;;;;;;;;;;2067026;28;20038;-80
2022/11/25 07:28:59;;;;;;;2.85;2.40;;;;;;;;;;2066950;28;20109;-80
2022/11/25 07:30:18;;;;;;;2.40;2.20;;;;;;;;;;2062970;28;20038;-79
2022/11/25 07:31:39;;;;;;;2.97;2.35;;;;;;;;;;2066114;28;20034;-80
2022/11/25 07:32:57;;;;;;;4.90;2.92;;;;;;;;;;2065981;28;20042;-80
2022/11/25 07:34:18;;;;;;;4.25;3.20;;;;;;;;;;2067734;28;20034;-80
2022/11/25 07:35:37;;;;;;;3.35;2.70;;;;;;;;;;2066347;28;20487;-79
2022/11/25 07:36:56;;;;;;;3.47;3.17;;;;;;;;;;2066718;28;20101;-79
2022/11/25 07:38:15;;;;;;;4.50;2.97;;;;;;;;;;2065191;28;20478;-80
2022/11/25 07:39:34;;;;;;;4.28;2.92;;;;;;;;;;2060032;28;20039;-79
2022/11/25 07:40:53;;;;;;;3.65;2.83;;;;;;;;;;2059464;28;20109;-80
2022/11/25 07:42:13;;;;;;;4.13;3.22;;;;;;;;;;2063975;28;20035;-80
2022/11/25 07:43:32;;;;;;;4.32;3.28;;;;;;;;;;2060606;28;20066;-80
2022/11/25 07:44:51;;;;;;;8.73;3.20;;;;;;;;;;2063251;28;20046;-80
2022/11/25 07:46:15;;;;;;;4.43;3.90;;;;;;;;;;2061975;28;20113;-80
2022/11/25 07:47:34;;;;;;;4.50;2.80;;;;;;;;;;2063464;28;20035;-80
2022/11/25 07:49:00;;;;;;;3.75;3.10;;;;;;;;;;2061572;28;20061;-80
2022/11/25 07:50:20;;;;;;;3.13;2.83;;;;;;;;;;2063773;28;20045;-80
2022/11/25 07:51:40;;;;;;;3.50;2.92;;;;;;;;;;2066334;28;20033;-79
2022/11/25 07:52:59;;;;;;;5.65;3.15;;;;;;;;;;2068632;28;20034;-80
2022/11/25 07:54:19;;;;;;;4.00;3.38;;;;;;;;;;2065588;28;20026;-80
2022/11/25 07:55:39;;;;;;;3.72;2.88;;;;;;;;;;2069744;28;20022;-80
2022/11/25 07:57:00;;;;;;;3.42;2.97;;;;;;;;;;2067556;28;20039;-79
2022/11/25 07:58:19;;;;;;;3.10;2.80;;;;;;;;;;2063138;28;20635;-79
2022/11/25 07:59:41;;;;;;;3.00;2.80;;;;;;;;;;2061369;28;20484;-79
2022/11/25 08:01:04;;;;;;;3.00;2.80;;;;;;;;;;2058201;28;20031;-80
2022/11/25 08:02:23;;;;;;;4.20;3.10;;;;;;;;;;2062021;28;20031;-80
2022/11/25 08:03:46;;;;;;;7.38;3.35;;;;;;;;;;2065355;28;20126;-80
2022/11/25 08:05:05;;;;;;;2.90;2.70;;;;;;;;;;2066378;28;20510;-80
2022/11/25 08:06:25;;;;;;;3.95;2.70;;;;;;;;;;2066089;28;20022;-80